Henning, TN (38041)

9:43 PM CDT on August 21, 2017 (GMT -0500)
Possum Ridge Farms | | Change Station

Elev 312 ft 35.57 °N, 89.68 °W | Updated 10 seconds ago

Clear
Clear
76.9 °F
Feels Like 78 °F
N
0.0
Wind Variable Wind from West

Today
High -- | Low -- °F
--% Chance of Precip.
Yesterday
High -- | Low -- °F
Precip. -- in
Pressure 30.08 in
Visibility 10.0 miles
Clouds Clear
Heat Index 78 °F
Dew Point 74 °F
Humidity 91%
Rainfall 0.00 in
Snow Depth Not available.
6:22 AM 7:39 PM
New Moon, 0% visible
METAR KHKA 220153Z AUTO 18003KT 10SM CLR 29/25 A3008 RMK AO2 SLP184 T02890250
Pressure 30.08 in
Visibility 10.0 miles
Clouds Clear
Heat Index 78 °F
Dew Point 74 °F
Humidity 91%
Rainfall 0.00 in
Snow Depth Not available.
6:22 AM 7:39 PM
New Moon, 0% visible
METAR KHKA 220153Z AUTO 18003KT 10SM CLR 29/25 A3008 RMK AO2 SLP184 T02890250

Get Severe Weather Alerts

Thanks for signing up!

Be on the lookout for a verification email in your inbox.

You'll start receiving the daily forecast at 6 AM.

×

10-Day Weather Forecast

Almanac

Astronomy

Aug. 21, 2017 Rise Set
Actual Time
Civil Twilight
Nautical Twilight
Astronomical Twilight
Moon
Length of Visible Light
Length of Day
Tomorrow will be .
, % of the Moon is Illuminated

Today's Extremes

State Highs State Lows

Community

WunderPhotos

Category 6

Welcome to Category 6. This is the collective home for Weather Underground's featured writeups by Dr. Jeff Masters (right), Bob Henson (left), Chris Burt, and other regular contributors.

Nearby

Air Quality

  Air Quality AQ Index Pollutant
Not available.

Snow Depth

Station Depth Elevation

Earthquake Activity

City Distance Mag. Time & Date
Minimum magnitude displayed is 2.5.

Coastal Water Temperatures

Place Temperature

Stations

Nearby Weather Stations

Station Location Temp. Windchill Dew Point Humidity Wind Precip. Elev Updated Type
                   

Watches & Warnings

There are currently no watches in effect.